sensor_id;sensor_type;location;lat;lon;timestamp;pressure;altitude;pressure_sealevel;temperature;humidity
36234;BME280;43467;50.890;5.982;2022-12-07T00:00:26;100419.00;;;6.89;80.30
36234;BME280;43467;50.890;5.982;2022-12-07T00:02:52;100403.50;;;6.80;80.98
36234;BME280;43467;50.890;5.982;2022-12-07T00:05:17;100398.09;;;6.85;80.64
36234;BME280;43467;50.890;5.982;2022-12-07T00:07:42;100390.34;;;6.80;80.83
36234;BME280;43467;50.890;5.982;2022-12-07T00:10:08;100388.50;;;6.84;80.55
36234;BME280;43467;50.890;5.982;2022-12-07T00:12:33;100393.19;;;7.04;80.36
36234;BME280;43467;50.890;5.982;2022-12-07T00:14:59;100398.38;;;7.05;80.23
36234;BME280;43467;50.890;5.982;2022-12-07T00:17:24;100401.63;;;7.15;79.73
36234;BME280;43467;50.890;5.982;2022-12-07T00:19:49;100395.34;;;7.19;79.37
36234;BME280;43467;50.890;5.982;2022-12-07T00:22:15;100390.41;;;7.08;79.63
36234;BME280;43467;50.890;5.982;2022-12-07T00:24:40;100385.38;;;7.00;80.34
36234;BME280;43467;50.890;5.982;2022-12-07T00:27:05;100380.03;;;7.04;80.09
36234;BME280;43467;50.890;5.982;2022-12-07T00:29:31;100380.31;;;6.93;80.72
36234;BME280;43467;50.890;5.982;2022-12-07T00:31:56;100380.75;;;7.09;79.69
36234;BME280;43467;50.890;5.982;2022-12-07T00:34:21;100380.81;;;7.06;79.79
36234;BME280;43467;50.890;5.982;2022-12-07T00:36:47;100374.25;;;6.91;80.38
36234;BME280;43467;50.890;5.982;2022-12-07T00:39:13;100369.22;;;6.82;80.50
36234;BME280;43467;50.890;5.982;2022-12-07T00:41:38;100372.91;;;6.76;80.93
36234;BME280;43467;50.890;5.982;2022-12-07T00:44:04;100372.97;;;6.73;81.02
36234;BME280;43467;50.890;5.982;2022-12-07T00:46:29;100373.94;;;6.71;81.37
36234;BME280;43467;50.890;5.982;2022-12-07T00:48:55;100376.53;;;6.72;80.96
36234;BME280;43467;50.890;5.982;2022-12-07T00:51:23;100371.97;;;6.77;81.05
36234;BME280;43467;50.890;5.982;2022-12-07T00:53:49;100359.03;;;6.71;81.37
36234;BME280;43467;50.890;5.982;2022-12-07T00:56:26;100369.34;;;6.77;81.24
36234;BME280;43467;50.890;5.982;2022-12-07T00:58:55;100375.03;;;6.93;80.69
36234;BME280;43467;50.890;5.982;2022-12-07T01:01:22;100370.22;;;6.78;80.71
36234;BME280;43467;50.890;5.982;2022-12-07T01:03:49;100370.22;;;6.78;81.20
36234;BME280;43467;50.890;5.982;2022-12-07T01:06:17;100366.16;;;6.66;81.49
36234;BME280;43467;50.890;5.982;2022-12-07T01:08:43;100377.09;;;6.83;80.91
36234;BME280;43467;50.890;5.982;2022-12-07T01:11:13;100379.81;;;6.80;80.90
36234;BME280;43467;50.890;5.982;2022-12-07T01:13:39;100377.75;;;6.91;80.50
36234;BME280;43467;50.890;5.982;2022-12-07T01:16:05;100381.66;;;7.08;80.09
36234;BME280;43467;50.890;5.982;2022-12-07T01:18:34;100376.97;;;6.88;80.06
36234;BME280;43467;50.890;5.982;2022-12-07T01:21:11;100374.88;;;6.99;80.33
36234;BME280;43467;50.890;5.982;2022-12-07T01:23:37;100387.41;;;6.91;80.74
36234;BME280;43467;50.890;5.982;2022-12-07T01:26:07;100382.47;;;6.79;80.89
36234;BME280;43467;50.890;5.982;2022-12-07T01:28:33;100387.50;;;6.88;81.25
36234;BME280;43467;50.890;5.982;2022-12-07T01:33:27;100383.28;;;6.81;81.60
36234;BME280;43467;50.890;5.982;2022-12-07T01:35:53;100388.38;;;6.88;81.37
36234;BME280;43467;50.890;5.982;2022-12-07T01:38:19;100384.75;;;6.92;80.66
36234;BME280;43467;50.890;5.982;2022-12-07T01:40:44;100393.44;;;6.94;80.85
36234;BME280;43467;50.890;5.982;2022-12-07T01:43:17;100393.88;;;6.79;81.48
36234;BME280;43467;50.890;5.982;2022-12-07T01:45:43;100390.75;;;6.65;82.35
36234;BME280;43467;50.890;5.982;2022-12-07T01:48:10;100383.84;;;6.61;82.39
36234;BME280;43467;50.890;5.982;2022-12-07T01:50:38;100386.06;;;6.76;81.97
36234;BME280;43467;50.890;5.982;2022-12-07T01:53:06;100385.13;;;6.79;81.88
36234;BME280;43467;50.890;5.982;2022-12-07T01:55:38;100386.78;;;6.81;81.67
36234;BME280;43467;50.890;5.982;2022-12-07T01:58:05;100385.09;;;6.80;82.30
36234;BME280;43467;50.890;5.982;2022-12-07T02:00:31;100385.91;;;6.81;81.69
36234;BME280;43467;50.890;5.982;2022-12-07T02:03:04;100376.50;;;6.41;83.36
36234;BME280;43467;50.890;5.982;2022-12-07T02:05:32;100355.94;;;6.56;82.54
36234;BME280;43467;50.890;5.982;2022-12-07T02:07:58;100379.00;;;6.77;81.97
36234;BME280;43467;50.890;5.982;2022-12-07T02:10:29;100379.84;;;6.79;81.83
36234;BME280;43467;50.890;5.982;2022-12-07T02:13:10;100366.16;;;6.66;81.92
36234;BME280;43467;50.890;5.982;2022-12-07T02:18:19;100362.56;;;6.69;82.11
36234;BME280;43467;50.890;5.982;2022-12-07T02:21:07;100353.41;;;6.83;81.65
36234;BME280;43467;50.890;5.982;2022-12-07T02:31:51;100362.09;;;6.85;81.79
36234;BME280;43467;50.890;5.982;2022-12-07T02:34:37;100360.44;;;6.83;81.04
36234;BME280;43467;50.890;5.982;2022-12-07T02:37:12;100358.56;;;6.86;81.18
36234;BME280;43467;50.890;5.982;2022-12-07T02:40:23;100367.03;;;6.97;80.99
36234;BME280;43467;50.890;5.982;2022-12-07T02:42:50;100362.03;;;6.88;81.16
36234;BME280;43467;50.890;5.982;2022-12-07T02:45:22;100357.97;;;6.77;81.31
36234;BME280;43467;50.890;5.982;2022-12-07T02:47:52;100358.41;;;6.92;81.19
36234;BME280;43467;50.890;5.982;2022-12-07T02:50:21;100353.66;;;6.74;81.65
36234;BME280;43467;50.890;5.982;2022-12-07T02:52:47;100352.78;;;6.74;82.05
36234;BME280;43467;50.890;5.982;2022-12-07T02:55:15;100352.91;;;6.69;81.99
36234;BME280;43467;50.890;5.982;2022-12-07T03:00:48;100358.94;;;6.74;82.36
36234;BME280;43467;50.890;5.982;2022-12-07T03:03:17;100358.94;;;6.74;82.20
36234;BME280;43467;50.890;5.982;2022-12-07T03:08:37;100357.38;;;6.67;82.37
36234;BME280;43467;50.890;5.982;2022-12-07T03:11:25;100367.91;;;6.67;82.09
36234;BME280;43467;50.890;5.982;2022-12-07T03:14:15;100360.22;;;6.60;82.63
36234;BME280;43467;50.890;5.982;2022-12-07T03:17:04;100354.09;;;6.59;82.48
36234;BME280;43467;50.890;5.982;2022-12-07T03:19:32;100366.84;;;6.73;82.08
36234;BME280;43467;50.890;5.982;2022-12-07T03:22:10;100361.25;;;6.54;82.46
36234;BME280;43467;50.890;5.982;2022-12-07T03:24:50;100363.38;;;6.72;82.16
36234;BME280;43467;50.890;5.982;2022-12-07T03:27:33;100364.22;;;6.73;82.19
36234;BME280;43467;50.890;5.982;2022-12-07T03:30:03;100361.75;;;6.68;82.24
36234;BME280;43467;50.890;5.982;2022-12-07T03:32:51;100362.41;;;6.75;81.96
36234;BME280;43467;50.890;5.982;2022-12-07T03:35:30;100358.94;;;6.74;82.00
36234;BME280;43467;50.890;5.982;2022-12-07T03:38:07;100359.25;;;6.62;82.27
36234;BME280;43467;50.890;5.982;2022-12-07T03:40:39;100358.97;;;6.73;82.33
36234;BME280;43467;50.890;5.982;2022-12-07T03:43:05;100355.00;;;6.58;82.70
36234;BME280;43467;50.890;5.982;2022-12-07T03:45:43;100357.47;;;6.64;82.45
36234;BME280;43467;50.890;5.982;2022-12-07T03:48:38;100351.28;;;6.65;82.51
36234;BME280;43467;50.890;5.982;2022-12-07T03:51:10;100351.47;;;6.59;82.76
36234;BME280;43467;50.890;5.982;2022-12-07T03:53:50;100348.88;;;6.58;83.15
36234;BME280;43467;50.890;5.982;2022-12-07T03:56:18;100354.78;;;6.66;82.51
36234;BME280;43467;50.890;5.982;2022-12-07T03:58:44;100359.75;;;6.76;81.92
36234;BME280;43467;50.890;5.982;2022-12-07T04:01:10;100355.13;;;6.53;82.63
36234;BME280;43467;50.890;5.982;2022-12-07T04:03:35;100363.56;;;6.65;82.33
36234;BME280;43467;50.890;5.982;2022-12-07T04:06:01;100358.28;;;6.66;82.96
36234;BME280;43467;50.890;5.982;2022-12-07T04:08:26;100366.34;;;6.60;82.71
36234;BME280;43467;50.890;5.982;2022-12-07T04:10:52;100354.97;;;6.60;82.49
36234;BME280;43467;50.890;5.982;2022-12-07T04:13:17;100348.75;;;6.62;83.15
36234;BME280;43467;50.890;5.982;2022-12-07T04:15:42;100346.97;;;6.63;82.65
36234;BME280;43467;50.890;5.982;2022-12-07T04:18:08;100348.06;;;6.56;82.86
36234;BME280;43467;50.890;5.982;2022-12-07T04:20:33;100341.19;;;6.50;82.72
36234;BME280;43467;50.890;5.982;2022-12-07T04:22:59;100341.41;;;6.42;83.72
36234;BME280;43467;50.890;5.982;2022-12-07T04:25:24;100342.88;;;6.52;83.33
36234;BME280;43467;50.890;5.982;2022-12-07T04:27:49;100344.56;;;6.55;82.68
36234;BME280;43467;50.890;5.982;2022-12-07T04:30:15;100328.72;;;6.57;82.56
36234;BME280;43467;50.890;5.982;2022-12-07T04:32:40;100342.34;;;6.72;82.45
36234;BME280;43467;50.890;5.982;2022-12-07T04:35:06;100348.09;;;6.54;83.10
36234;BME280;43467;50.890;5.982;2022-12-07T04:37:32;100347.75;;;6.66;82.67
36234;BME280;43467;50.890;5.982;2022-12-07T04:39:57;100349.25;;;6.75;82.14
36234;BME280;43467;50.890;5.982;2022-12-07T04:42:22;100347.59;;;6.72;82.26
36234;BME280;43467;50.890;5.982;2022-12-07T04:44:48;100351.06;;;6.73;81.91
36234;BME280;43467;50.890;5.982;2022-12-07T04:47:13;100349.25;;;6.75;81.92
36234;BME280;43467;50.890;5.982;2022-12-07T04:49:38;100336.59;;;6.57;82.50
36234;BME280;43467;50.890;5.982;2022-12-07T04:52:04;100345.34;;;6.59;82.30
36234;BME280;43467;50.890;5.982;2022-12-07T04:54:29;100338.41;;;6.56;82.69
36234;BME280;43467;50.890;5.982;2022-12-07T04:56:55;100336.69;;;6.55;82.54
36234;BME280;43467;50.890;5.982;2022-12-07T04:59:20;100333.16;;;6.56;82.76
36234;BME280;43467;50.890;5.982;2022-12-07T05:01:45;100335.72;;;6.58;82.87
36234;BME280;43467;50.890;5.982;2022-12-07T05:04:11;100343.50;;;6.61;82.43
36234;BME280;43467;50.890;5.982;2022-12-07T05:06:37;100341.69;;;6.64;82.27
36234;BME280;43467;50.890;5.982;2022-12-07T05:09:03;100339.19;;;6.60;82.37
36234;BME280;43467;50.890;5.982;2022-12-07T05:11:28;100336.69;;;6.55;82.39
36234;BME280;43467;50.890;5.982;2022-12-07T05:14:05;100338.72;;;6.44;82.97
36234;BME280;43467;50.890;5.982;2022-12-07T05:16:31;100341.97;;;6.53;82.51
36234;BME280;43467;50.890;5.982;2022-12-07T05:18:57;100338.78;;;6.42;82.92
36234;BME280;43467;50.890;5.982;2022-12-07T05:21:22;100334.75;;;6.28;83.48
36234;BME280;43467;50.890;5.982;2022-12-07T05:23:48;100333.00;;;6.28;83.44
36234;BME280;43467;50.890;5.982;2022-12-07T05:26:13;100338.97;;;6.35;83.46
36234;BME280;43467;50.890;5.982;2022-12-07T05:28:39;100339.31;;;6.55;82.84
36234;BME280;43467;50.890;5.982;2022-12-07T05:31:04;100333.63;;;6.38;83.02
36234;BME280;43467;50.890;5.982;2022-12-07T05:33:29;100336.25;;;6.38;83.20
36234;BME280;43467;50.890;5.982;2022-12-07T05:35:55;100333.00;;;6.28;83.11
36234;BME280;43467;50.890;5.982;2022-12-07T05:38:20;100323.56;;;6.21;83.47
36234;BME280;43467;50.890;5.982;2022-12-07T05:40:45;100335.63;;;6.28;83.40
36234;BME280;43467;50.890;5.982;2022-12-07T05:43:11;100326.31;;;6.17;83.61
36234;BME280;43467;50.890;5.982;2022-12-07T05:45:36;100337.34;;;6.31;83.41
36234;BME280;43467;50.890;5.982;2022-12-07T05:48:01;100329.81;;;6.17;83.56
36234;BME280;43467;50.890;5.982;2022-12-07T05:50:27;100336.25;;;6.05;84.14
36234;BME280;43467;50.890;5.982;2022-12-07T05:52:53;100332.31;;;6.22;83.62
36234;BME280;43467;50.890;5.982;2022-12-07T05:55:19;100329.13;;;6.11;83.68
36234;BME280;43467;50.890;5.982;2022-12-07T05:57:44;100322.09;;;6.11;84.06
36234;BME280;43467;50.890;5.982;2022-12-07T06:00:29;100334.75;;;6.29;83.17
36234;BME280;43467;50.890;5.982;2022-12-07T06:02:55;100330.34;;;6.30;83.31
36234;BME280;43467;50.890;5.982;2022-12-07T06:05:20;100333.63;;;6.38;82.90
36234;BME280;43467;50.890;5.982;2022-12-07T06:07:45;100336.47;;;6.30;82.91
36234;BME280;43467;50.890;5.982;2022-12-07T06:10:11;100334.75;;;6.28;82.93
36234;BME280;43467;50.890;5.982;2022-12-07T06:12:36;100334.84;;;6.25;83.62
36234;BME280;43467;50.890;5.982;2022-12-07T06:15:05;100342.00;;;6.20;83.47
36234;BME280;43467;50.890;5.982;2022-12-07T06:17:30;100334.06;;;6.23;83.21
36234;BME280;43467;50.890;5.982;2022-12-07T06:19:56;100340.03;;;6.28;83.36
36234;BME280;43467;50.890;5.982;2022-12-07T06:22:21;100341.63;;;6.33;82.95
36234;BME280;43467;50.890;5.982;2022-12-07T06:24:47;100341.53;;;6.38;82.42
36234;BME280;43467;50.890;5.982;2022-12-07T06:27:12;100345.78;;;6.42;82.61
36234;BME280;43467;50.890;5.982;2022-12-07T06:29:38;100345.13;;;6.34;82.92
36234;BME280;43467;50.890;5.982;2022-12-07T06:32:04;100339.97;;;6.31;83.10
36234;BME280;43467;50.890;5.982;2022-12-07T06:34:30;100341.66;;;6.32;83.46
36234;BME280;43467;50.890;5.982;2022-12-07T06:36:55;100335.75;;;6.24;83.55
36234;BME280;43467;50.890;5.982;2022-12-07T06:39:24;100340.19;;;6.23;83.60
36234;BME280;43467;50.890;5.982;2022-12-07T06:41:50;100326.88;;;6.28;83.23
36234;BME280;43467;50.890;5.982;2022-12-07T06:44:17;100338.97;;;6.35;83.10
36234;BME280;43467;50.890;5.982;2022-12-07T06:46:42;100334.50;;;6.38;83.07
36234;BME280;43467;50.890;5.982;2022-12-07T06:49:07;100338.25;;;6.28;83.24
36234;BME280;43467;50.890;5.982;2022-12-07T06:51:34;100337.50;;;6.25;83.19
36234;BME280;43467;50.890;5.982;2022-12-07T06:54:04;100342.38;;;6.06;84.05
36234;BME280;43467;50.890;5.982;2022-12-07T06:56:29;100347.91;;;6.28;83.57
36234;BME280;43467;50.890;5.982;2022-12-07T06:58:55;100341.19;;;6.18;83.73
36234;BME280;43467;50.890;5.982;2022-12-07T07:01:20;100348.19;;;6.19;84.00
36234;BME280;43467;50.890;5.982;2022-12-07T07:03:46;100329.84;;;6.16;83.89
36234;BME280;43467;50.890;5.982;2022-12-07T07:06:12;100344.56;;;6.23;84.03
36234;BME280;43467;50.890;5.982;2022-12-07T07:08:38;100346.91;;;6.33;83.65
36234;BME280;43467;50.890;5.982;2022-12-07T07:11:05;100345.94;;;6.36;83.18
36234;BME280;43467;50.890;5.982;2022-12-07T07:13:30;100346.13;;;6.30;83.48
36234;BME280;43467;50.890;5.982;2022-12-07T07:15:56;100344.63;;;6.20;83.99
36234;BME280;43467;50.890;5.982;2022-12-07T07:18:21;100346.69;;;6.08;84.33
36234;BME280;43467;50.890;5.982;2022-12-07T07:20:46;100346.44;;;6.18;84.25
36234;BME280;43467;50.890;5.982;2022-12-07T07:23:12;100336.16;;;6.08;84.53
36234;BME280;43467;50.890;5.982;2022-12-07T07:25:38;100341.19;;;6.18;84.49
36234;BME280;43467;50.890;5.982;2022-12-07T07:28:03;100349.72;;;6.27;83.88
36234;BME280;43467;50.890;5.982;2022-12-07T07:30:29;100342.66;;;6.28;83.55
36234;BME280;43467;50.890;5.982;2022-12-07T07:32:59;100352.16;;;6.33;83.95
36234;BME280;43467;50.890;5.982;2022-12-07T07:35:25;100341.81;;;6.27;83.62
36234;BME280;43467;50.890;5.982;2022-12-07T07:37:51;100353.22;;;6.26;83.66
36234;BME280;43467;50.890;5.982;2022-12-07T07:40:16;100360.63;;;6.44;82.88
36234;BME280;43467;50.890;5.982;2022-12-07T07:42:42;100349.56;;;6.32;82.71
36234;BME280;43467;50.890;5.982;2022-12-07T07:45:09;100352.94;;;6.37;83.01
36234;BME280;43467;50.890;5.982;2022-12-07T07:47:34;100348.66;;;6.33;82.85
36234;BME280;43467;50.890;5.982;2022-12-07T07:50:00;100349.66;;;6.29;83.00
36234;BME280;43467;50.890;5.982;2022-12-07T07:52:25;100356.63;;;6.31;82.83
36234;BME280;43467;50.890;5.982;2022-12-07T07:54:51;100356.88;;;6.21;82.84
36234;BME280;43467;50.890;5.982;2022-12-07T07:57:17;100345.03;;;6.04;83.04
36234;BME280;43467;50.890;5.982;2022-12-07T07:59:42;100353.38;;;6.20;82.56
36234;BME280;43467;50.890;5.982;2022-12-07T08:02:18;100350.69;;;6.23;82.36
36234;BME280;43467;50.890;5.982;2022-12-07T08:04:44;100356.00;;;6.20;82.25
36234;BME280;43467;50.890;5.982;2022-12-07T08:07:10;100354.25;;;6.21;81.78
36234;BME280;43467;50.890;5.982;2022-12-07T08:09:37;100360.47;;;6.17;82.50
36234;BME280;43467;50.890;5.982;2022-12-07T08:12:02;100366.91;;;6.05;82.34
36234;BME280;43467;50.890;5.982;2022-12-07T08:14:28;100366.34;;;5.92;82.99
36234;BME280;43467;50.890;5.982;2022-12-07T08:16:54;100360.47;;;5.81;83.29
36234;BME280;43467;50.890;5.982;2022-12-07T08:19:20;100372.78;;;5.79;83.78
36234;BME280;43467;50.890;5.982;2022-12-07T08:21:45;100354.34;;;5.82;84.00
36234;BME280;43467;50.890;5.982;2022-12-07T08:24:11;100361.88;;;5.97;83.00
36234;BME280;43467;50.890;5.982;2022-12-07T08:26:36;100358.59;;;5.88;82.71
36234;BME280;43467;50.890;5.982;2022-12-07T08:29:01;100370.53;;;6.01;82.82
36234;BME280;43467;50.890;5.982;2022-12-07T08:31:27;100366.84;;;6.08;82.44
36234;BME280;43467;50.890;5.982;2022-12-07T08:33:53;100367.09;;;5.99;82.78
36234;BME280;43467;50.890;5.982;2022-12-07T08:36:19;100371.59;;;5.94;83.14
36234;BME280;43467;50.890;5.982;2022-12-07T08:38:45;100372.63;;;5.85;83.76
36234;BME280;43467;50.890;5.982;2022-12-07T08:41:10;100372.16;;;5.70;84.20
36234;BME280;43467;50.890;5.982;2022-12-07T08:43:36;100371.41;;;5.63;84.30
36234;BME280;43467;50.890;5.982;2022-12-07T08:46:21;100377.59;;;5.62;84.52
36234;BME280;43467;50.890;5.982;2022-12-07T08:48:55;100361.81;;;5.62;84.62
36234;BME280;43467;50.890;5.982;2022-12-07T08:51:22;100372.03;;;5.74;84.33
36234;BME280;43467;50.890;5.982;2022-12-07T08:53:49;100377.06;;;5.83;83.82
36234;BME280;43467;50.890;5.982;2022-12-07T08:56:16;100377.84;;;5.88;83.97
36234;BME280;43467;50.890;5.982;2022-12-07T08:58:42;100372.78;;;5.79;84.12
36234;BME280;43467;50.890;5.982;2022-12-07T09:01:07;100365.72;;;5.81;83.79
36234;BME280;43467;50.890;5.982;2022-12-07T09:03:33;100360.59;;;5.77;84.21
36234;BME280;43467;50.890;5.982;2022-12-07T09:05:58;100385.00;;;5.80;84.30
36234;BME280;43467;50.890;5.982;2022-12-07T09:08:29;100376.44;;;5.74;84.49
36234;BME280;43467;50.890;5.982;2022-12-07T09:10:55;100386.84;;;5.78;84.43
36234;BME280;43467;50.890;5.982;2022-12-07T09:13:21;100385.59;;;5.94;84.32
36234;BME280;43467;50.890;5.982;2022-12-07T09:15:46;100385.50;;;5.99;83.86
36234;BME280;43467;50.890;5.982;2022-12-07T09:18:12;100377.53;;;6.02;83.47
36234;BME280;43467;50.890;5.982;2022-12-07T09:20:37;100387.00;;;6.07;83.28
36234;BME280;43467;50.890;5.982;2022-12-07T09:23:05;100379.31;;;6.00;83.93
36234;BME280;43467;50.890;5.982;2022-12-07T09:25:31;100381.16;;;5.96;83.68
36234;BME280;43467;50.890;5.982;2022-12-07T09:27:57;100384.44;;;6.06;83.46
36234;BME280;43467;50.890;5.982;2022-12-07T09:30:23;100381.00;;;6.02;83.30
36234;BME280;43467;50.890;5.982;2022-12-07T09:32:48;100371.63;;;5.92;83.33
36234;BME280;43467;50.890;5.982;2022-12-07T09:35:14;100376.13;;;5.86;83.82
36234;BME280;43467;50.890;5.982;2022-12-07T09:37:39;100379.28;;;6.01;83.72
36234;BME280;43467;50.890;5.982;2022-12-07T09:40:05;100381.88;;;6.03;83.43
36234;BME280;43467;50.890;5.982;2022-12-07T09:42:39;100388.03;;;6.02;83.61
36234;BME280;43467;50.890;5.982;2022-12-07T09:45:28;100377.84;;;5.88;83.96
36234;BME280;43467;50.890;5.982;2022-12-07T09:47:55;100377.81;;;5.90;84.03
36234;BME280;43467;50.890;5.982;2022-12-07T09:50:26;100372.47;;;5.94;83.83
36234;BME280;43467;50.890;5.982;2022-12-07T09:52:52;100373.13;;;6.02;83.65
36234;BME280;43467;50.890;5.982;2022-12-07T09:55:29;100371.41;;;6.01;83.60
36234;BME280;43467;50.890;5.982;2022-12-07T09:57:57;100372.41;;;6.30;82.90
36234;BME280;43467;50.890;5.982;2022-12-07T10:00:23;100373.72;;;6.47;81.89
36234;BME280;43467;50.890;5.982;2022-12-07T10:02:55;100378.63;;;6.27;81.76
36234;BME280;43467;50.890;5.982;2022-12-07T10:05:27;100377.50;;;6.36;81.97
36234;BME280;43467;50.890;5.982;2022-12-07T10:07:52;100376.00;;;6.27;82.34
36234;BME280;43467;50.890;5.982;2022-12-07T10:10:24;100372.53;;;6.25;82.41
36234;BME280;43467;50.890;5.982;2022-12-07T10:15:22;100361.16;;;6.25;83.03
36234;BME280;43467;50.890;5.982;2022-12-07T10:17:50;100352.72;;;6.12;83.23
36234;BME280;43467;50.890;5.982;2022-12-07T10:20:24;100359.41;;;6.24;83.12
36234;BME280;43467;50.890;5.982;2022-12-07T10:25:27;100343.84;;;6.16;82.97
36234;BME280;43467;50.890;5.982;2022-12-07T10:30:56;100351.91;;;6.10;82.94
36234;BME280;43467;50.890;5.982;2022-12-07T10:35:53;100347.81;;;5.98;83.09
36234;BME280;43467;50.890;5.982;2022-12-07T10:38:18;100342.38;;;6.06;82.95
36234;BME280;43467;50.890;5.982;2022-12-07T10:40:44;100337.00;;;6.11;83.05
36234;BME280;43467;50.890;5.982;2022-12-07T10:48:19;100326.03;;;6.27;81.85
36234;BME280;43467;50.890;5.982;2022-12-07T10:51:09;100325.19;;;6.27;82.30
36234;BME280;43467;50.890;5.982;2022-12-07T10:54:04;100324.22;;;6.29;82.52
36234;BME280;43467;50.890;5.982;2022-12-07T10:59:28;100322.00;;;6.46;82.32
36234;BME280;43467;50.890;5.982;2022-12-07T11:05:26;100313.28;;;6.44;81.69
36234;BME280;43467;50.890;5.982;2022-12-07T11:10:33;100306.66;;;6.31;81.57
36234;BME280;43467;50.890;5.982;2022-12-07T11:13:20;100298.13;;;6.22;82.09
36234;BME280;43467;50.890;5.982;2022-12-07T11:16:06;100294.34;;;6.32;81.91
36234;BME280;43467;50.890;5.982;2022-12-07T11:18:51;100291.94;;;6.24;82.09
36234;BME280;43467;50.890;5.982;2022-12-07T11:24:04;100291.25;;;6.48;81.91
36234;BME280;43467;50.890;5.982;2022-12-07T11:35:11;100278.03;;;6.81;80.33
36234;BME280;43467;50.890;5.982;2022-12-07T11:37:40;100285.34;;;6.71;79.94
36234;BME280;43467;50.890;5.982;2022-12-07T11:42:53;100276.03;;;6.60;80.37
36234;BME280;43467;50.890;5.982;2022-12-07T11:45:29;100271.31;;;6.71;79.99
36234;BME280;43467;50.890;5.982;2022-12-07T11:48:21;100265.28;;;6.67;79.96
36234;BME280;43467;50.890;5.982;2022-12-07T11:50:56;100268.03;;;6.64;79.63
36234;BME280;43467;50.890;5.982;2022-12-07T11:53:36;100268.66;;;6.72;79.87
36234;BME280;43467;50.890;5.982;2022-12-07T12:03:52;100256.78;;;6.88;79.42
36234;BME280;43467;50.890;5.982;2022-12-07T12:06:20;100253.94;;;6.94;79.33
36234;BME280;43467;50.890;5.982;2022-12-07T12:08:50;100257.41;;;7.24;79.01
36234;BME280;43467;50.890;5.982;2022-12-07T12:14:11;100239.38;;;7.11;78.27
36234;BME280;43467;50.890;5.982;2022-12-07T12:22:20;100236.84;;;7.08;78.42
36234;BME280;43467;50.890;5.982;2022-12-07T12:24:51;100217.31;;;7.15;78.42
36234;BME280;43467;50.890;5.982;2022-12-07T12:27:23;100238.06;;;7.25;77.94
36234;BME280;43467;50.890;5.982;2022-12-07T12:29:55;100240.06;;;7.17;78.49
36234;BME280;43467;50.890;5.982;2022-12-07T12:32:39;100230.66;;;7.36;78.18
36234;BME280;43467;50.890;5.982;2022-12-07T12:35:41;100230.16;;;7.25;78.15
36234;BME280;43467;50.890;5.982;2022-12-07T12:40:53;100232.16;;;6.89;79.04
36234;BME280;43467;50.890;5.982;2022-12-07T12:43:50;100236.09;;;6.76;79.03
36234;BME280;43467;50.890;5.982;2022-12-07T12:51:52;100225.34;;;7.10;78.63
36234;BME280;43467;50.890;5.982;2022-12-07T12:54:25;100215.50;;;7.17;78.36
36234;BME280;43467;50.890;5.982;2022-12-07T13:02:31;100208.63;;;7.13;77.59
36234;BME280;43467;50.890;5.982;2022-12-07T13:18:22;100202.88;;;7.00;78.43
36234;BME280;43467;50.890;5.982;2022-12-07T13:23:27;100188.50;;;7.10;78.04
36234;BME280;43467;50.890;5.982;2022-12-07T13:25:59;100190.28;;;7.10;78.18
36234;BME280;43467;50.890;5.982;2022-12-07T13:28:41;100185.25;;;7.02;78.21
36234;BME280;43467;50.890;5.982;2022-12-07T13:31:14;100180.56;;;7.12;78.24
36234;BME280;43467;50.890;5.982;2022-12-07T13:33:45;100180.66;;;7.09;78.40
36234;BME280;43467;50.890;5.982;2022-12-07T13:36:19;100188.25;;;7.18;78.36
36234;BME280;43467;50.890;5.982;2022-12-07T13:38:56;100177.53;;;7.24;78.18
36234;BME280;43467;50.890;5.982;2022-12-07T13:41:27;100171.63;;;7.17;78.33
36234;BME280;43467;50.890;5.982;2022-12-07T13:46:35;100175.47;;;7.06;79.06
36234;BME280;43467;50.890;5.982;2022-12-07T13:49:19;100160.94;;;6.94;79.03
36234;BME280;43467;50.890;5.982;2022-12-07T13:51:44;100158.53;;;7.14;79.36
36234;BME280;43467;50.890;5.982;2022-12-07T13:54:12;100161.16;;;7.14;79.06
36234;BME280;43467;50.890;5.982;2022-12-07T13:56:37;100155.75;;;7.19;78.95
36234;BME280;43467;50.890;5.982;2022-12-07T13:59:21;100137.41;;;6.89;79.15
36234;BME280;43467;50.890;5.982;2022-12-07T14:01:49;100151.00;;;7.04;79.37
36234;BME280;43467;50.890;5.982;2022-12-07T14:06:50;100151.13;;;6.99;79.80
36234;BME280;43467;50.890;5.982;2022-12-07T14:09:20;100154.44;;;7.06;79.94
36234;BME280;43467;50.890;5.982;2022-12-07T14:11:47;100140.34;;;7.07;79.70
36234;BME280;43467;50.890;5.982;2022-12-07T14:14:18;100144.56;;;7.12;79.68
36234;BME280;43467;50.890;5.982;2022-12-07T14:16:58;100140.25;;;7.10;79.57
36234;BME280;43467;50.890;5.982;2022-12-07T14:19:57;100133.81;;;7.18;79.28
36234;BME280;43467;50.890;5.982;2022-12-07T14:22:33;100137.31;;;7.19;79.20
36234;BME280;43467;50.890;5.982;2022-12-07T14:25:22;100137.97;;;6.99;79.62
36234;BME280;43467;50.890;5.982;2022-12-07T14:27:58;100137.97;;;6.99;79.64
36234;BME280;43467;50.890;5.982;2022-12-07T14:30:29;100144.00;;;7.03;79.66
36234;BME280;43467;50.890;5.982;2022-12-07T14:33:01;100133.13;;;6.87;79.60
36234;BME280;43467;50.890;5.982;2022-12-07T14:35:28;100134.91;;;6.85;80.03
36234;BME280;43467;50.890;5.982;2022-12-07T14:37:54;100133.00;;;6.90;79.97
36234;BME280;43467;50.890;5.982;2022-12-07T14:40:25;100128.00;;;6.82;80.00
36234;BME280;43467;50.890;5.982;2022-12-07T14:43:03;100113.06;;;6.83;79.71
36234;BME280;43467;50.890;5.982;2022-12-07T14:45:30;100114.41;;;6.96;79.38
36234;BME280;43467;50.890;5.982;2022-12-07T14:47:55;100119.66;;;6.96;79.42
36234;BME280;43467;50.890;5.982;2022-12-07T14:50:21;100116.81;;;7.02;79.38
36234;BME280;43467;50.890;5.982;2022-12-07T14:52:51;100116.56;;;7.10;78.52
36234;BME280;43467;50.890;5.982;2022-12-07T14:55:26;100111.63;;;7.00;78.06
36234;BME280;43467;50.890;5.982;2022-12-07T14:57:52;100110.78;;;6.98;78.36
36234;BME280;43467;50.890;5.982;2022-12-07T15:00:18;100112.53;;;6.99;78.35